Hanalei, HI

7:38 PM HST on August 20, 2014 (GMT -1000)
Barking Sands PMRF | Change Station
CLOSE
Current Station
Airport
Location: Barking Sands,
Elevation: 13 ft
Nearby Weather Stations

Elev 13 ft 22.02 °N, 159.79 °W | Updated 42 minutes ago

Clear
Clear
82 °F
Feels Like 83 °F
N
6
Wind Variable Wind from NNW

Today
High -- | Low -- °F
--% Chance of Precip.
Yesterday
High -- | Low -- °F
Precip. -- in
6:17 AM 7:05 PM
Waning Crescent, 16% visible
Pressure 29.95 in
Visibility 10.0 miles
Clouds Clear
Heat Index 83 °F
Dew Point 63 °F
Humidity 52%
Rainfall 0.00 in
Snow Depth Not available.
UV 0 out of 12
Pollen Not available.
Air Quality Not available.
Flu Activity Not available.
METAR PHBK 210456Z AUTO 33005KT 10SM CLR 28/17 A2995 RMK AO2 SLP142 T02780172 TSNO $

More Conditions Fewer Conditions

Pressure 29.95 in
Visibility 10.0 miles
Clouds Clear
Heat Index 83 °F
Dew Point 63 °F
Humidity 52%
Rainfall 0.00 in
Snow Depth Not available.
UV 0 out of 12
Pollen Not available.
Air Quality Not available.
Flu Activity Not available.
METAR PHBK 210456Z AUTO 33005KT 10SM CLR 28/17 A2995 RMK AO2 SLP142 T02780172 TSNO $

More Conditions Fewer Conditions

10-Day Weather Forecast

Almanac

Astronomy

Aug. 20, 2014 Rise Set
Actual Time 6:17 AM HST 7:05 PM HST
Civil Twilight 5:54 AM HST 7:28 PM HST
Nautical Twilight 5:26 AM HST 7:55 PM HST
Astronomical Twilight 4:59 AM HST 8:22 PM HST
Moon 2:19 AM HST (8/20) 3:47 PM HST (8/20)
Length of Visible Light 13h 34m
Length of Day
12h 47m
Tomorrow will be 1m 9s shorter.
Waning Crescent, 16% of the Moon is Illuminated
Aug 21
Waning Crescent
Aug 25
New
Sep 2
First Quarter
Sep 8
Full
Sep 15
Last Quarter

Yesterday's Extremes

State Highs State Lows

Community

WunderPhotos

Upload Photos

1,745,858 photos uploaded!

Nearby

Snow Depth

Station Depth Elevation
No new snow has been reported.

Earthquake Activity

City Distance Mag. Time & Date
No recent earthquake activity has been reported nearby.
Minimum magnitude displayed is 2.5.

Coastal Water Temperatures

Place Temperature
No Stations Reporting

Nearby Weather Stations